createdAt,value
2023-03-20T00:02:24.391Z,7.47
2023-03-20T00:04:55.536Z,7.32
2023-03-20T00:07:23.181Z,7.22
2023-03-20T00:09:58.042Z,8.10
2023-03-20T00:12:26.639Z,9.25
2023-03-20T00:14:54.639Z,10.50
2023-03-20T00:17:22.602Z,12.45
2023-03-20T00:19:56.328Z,11.18
2023-03-20T00:22:23.984Z,10.18
2023-03-20T00:24:52.695Z,9.27
2023-03-20T00:27:25.888Z,8.30
2023-03-20T00:29:55.038Z,9.38
2023-03-20T00:32:24.134Z,7.75
2023-03-20T00:34:54.424Z,8.30
2023-03-20T00:37:23.351Z,7.68
2023-03-20T00:39:52.221Z,8.32
2023-03-20T00:42:22.846Z,8.32
2023-03-20T00:44:55.938Z,8.05
2023-03-20T00:47:27.414Z,8.25
2023-03-20T00:49:56.348Z,8.48
2023-03-20T00:52:25.287Z,9.43
2023-03-20T00:54:53.005Z,10.32
2023-03-20T00:57:24.312Z,8.77
2023-03-20T00:59:57.549Z,8.50
2023-03-20T01:02:29.071Z,8.88
2023-03-20T01:04:58.272Z,8.02
2023-03-20T01:07:27.816Z,8.68
2023-03-20T01:09:56.349Z,7.97
2023-03-20T01:12:24.125Z,8.32
2023-03-20T01:14:56.026Z,8.10
2023-03-20T01:17:26.374Z,7.47
2023-03-20T01:19:54.284Z,8.13
2023-03-20T01:22:21.835Z,9.15
2023-03-20T01:24:49.376Z,8.73
2023-03-20T01:27:19.684Z,8.13
2023-03-20T01:29:47.735Z,8.05
2023-03-20T01:32:18.448Z,8.43
2023-03-20T01:34:49.296Z,9.18
2023-03-20T01:37:27.933Z,9.02
2023-03-20T01:40:01.257Z,9.77
2023-03-20T01:42:32.305Z,8.90
2023-03-20T01:45:00.107Z,9.98
2023-03-20T01:47:29.195Z,10.17
2023-03-20T01:50:18.741Z,8.98
2023-03-20T01:52:52.430Z,10.10
2023-03-20T01:55:21.258Z,8.88
2023-03-20T01:57:56.417Z,9.82
2023-03-20T02:00:24.229Z,8.77
2023-03-20T02:02:53.164Z,9.48
2023-03-20T02:05:40.985Z,9.07
2023-03-20T02:08:25.957Z,10.13
2023-03-20T02:10:56.382Z,10.02
2023-03-20T02:13:31.482Z,9.88
2023-03-20T02:16:16.251Z,9.85
2023-03-20T02:18:52.300Z,9.23
2023-03-20T02:21:35.699Z,9.88
2023-03-20T02:24:15.563Z,10.35
2023-03-20T02:27:11.223Z,10.52
2023-03-20T02:29:48.312Z,12.23
2023-03-20T02:32:18.993Z,10.60
2023-03-20T02:35:13.983Z,10.52
2023-03-20T02:38:02.228Z,11.63
2023-03-20T02:40:48.193Z,11.27
2023-03-20T02:43:56.586Z,12.18
2023-03-20T02:46:36.544Z,11.35
2023-03-20T02:50:00.703Z,10.13
2023-03-20T02:53:00.032Z,11.80
2023-03-20T02:55:40.149Z,11.40
2023-03-20T02:58:15.099Z,11.60
2023-03-20T03:01:11.593Z,12.30
2023-03-20T03:03:55.960Z,11.73
2023-03-20T03:06:30.049Z,10.55
2023-03-20T03:09:03.281Z,11.73
2023-03-20T03:11:36.459Z,11.63
2023-03-20T03:14:06.002Z,11.02
2023-03-20T03:16:37.767Z,12.02
2023-03-20T03:19:18.373Z,11.48
2023-03-20T03:21:48.096Z,11.63
2023-03-20T03:24:49.123Z,12.30
2023-03-20T03:27:26.214Z,11.27
2023-03-20T03:30:01.026Z,11.30
2023-03-20T03:32:34.311Z,12.48
2023-03-20T03:35:05.617Z,11.82
2023-03-20T03:37:41.296Z,11.57
2023-03-20T03:40:57.150Z,11.95
2023-03-20T03:43:34.558Z,10.20
2023-03-20T03:46:12.725Z,11.02
2023-03-20T03:48:47.724Z,10.85
2023-03-20T03:51:25.257Z,10.93
2023-03-20T03:54:22.703Z,11.25
2023-03-20T03:57:14.588Z,10.98
2023-03-20T03:59:49.965Z,12.30
2023-03-20T04:02:19.831Z,11.15
2023-03-20T04:04:51.743Z,10.93
2023-03-20T04:07:20.010Z,9.98
2023-03-20T04:09:48.007Z,11.90
2023-03-20T04:12:38.228Z,11.48
2023-03-20T04:15:10.898Z,10.65
2023-03-20T04:17:38.908Z,10.90
2023-03-20T04:20:08.268Z,10.10
2023-03-20T04:22:36.350Z,10.98
2023-03-20T04:25:16.353Z,9.95
2023-03-20T04:27:44.017Z,10.20
2023-03-20T04:30:19.602Z,10.57
2023-03-20T04:33:07.394Z,10.15
2023-03-20T04:35:44.506Z,11.07
2023-03-20T04:38:14.910Z,10.57
2023-03-20T04:40:43.530Z,11.90
2023-03-20T04:43:12.896Z,10.82
2023-03-20T04:45:41.783Z,10.75
2023-03-20T04:48:10.666Z,11.60
2023-03-20T04:50:39.481Z,11.17
2023-03-20T04:53:07.296Z,11.80
2023-03-20T04:55:41.699Z,10.85
2023-03-20T04:58:09.405Z,10.50
2023-03-20T05:00:37.083Z,11.10
2023-03-20T05:03:04.858Z,11.68
2023-03-20T05:05:34.443Z,10.43
2023-03-20T05:08:07.221Z,10.85
2023-03-20T05:10:37.610Z,11.63
2023-03-20T05:13:12.042Z,11.93
2023-03-20T05:16:01.315Z,12.32
2023-03-20T05:21:26.720Z,11.32
2023-03-20T05:24:14.634Z,11.70
2023-03-20T05:26:54.633Z,11.77
2023-03-20T05:29:47.981Z,12.10
2023-03-20T05:32:39.090Z,11.73
2023-03-20T05:35:33.179Z,13.05
2023-03-20T05:38:18.215Z,11.68
2023-03-20T05:40:59.338Z,12.13
2023-03-20T05:44:02.074Z,12.65
2023-03-20T05:46:37.509Z,12.13
2023-03-20T05:49:23.686Z,12.00
2023-03-20T05:52:13.074Z,12.57
2023-03-20T05:55:05.955Z,12.27
2023-03-20T05:57:46.875Z,11.57
2023-03-20T06:00:28.113Z,11.40
2023-03-20T06:03:15.991Z,12.50
2023-03-20T06:05:57.124Z,10.88
2023-03-20T06:08:24.892Z,11.95
2023-03-20T06:10:54.927Z,11.65
2023-03-20T06:13:22.818Z,12.73
2023-03-20T06:15:50.552Z,12.27
2023-03-20T06:18:19.174Z,11.87
2023-03-20T06:20:47.104Z,12.55
2023-03-20T06:23:15.014Z,11.77
2023-03-20T06:25:43.046Z,11.80
2023-03-20T06:28:11.010Z,13.40
2023-03-20T06:30:40.595Z,13.93
2023-03-20T06:33:14.197Z,13.43
2023-03-20T06:36:01.445Z,13.27
2023-03-20T06:38:32.489Z,12.88
2023-03-20T06:41:06.992Z,13.77
2023-03-20T06:43:35.474Z,14.65
2023-03-20T06:46:03.703Z,14.18
2023-03-20T06:48:37.358Z,12.95
2023-03-20T06:51:07.990Z,11.93
2023-03-20T06:53:46.869Z,10.77
2023-03-20T06:56:18.568Z,10.60
2023-03-20T06:58:46.857Z,11.90
2023-03-20T07:01:17.810Z,11.52
2023-03-20T07:03:46.872Z,11.40
2023-03-20T07:06:19.249Z,10.23
2023-03-20T07:08:47.118Z,10.93
2023-03-20T07:11:15.477Z,10.70
2023-03-20T07:13:43.251Z,11.38
2023-03-20T07:16:25.870Z,10.23
2023-03-20T07:18:53.905Z,10.65
2023-03-20T07:21:25.582Z,10.73
2023-03-20T07:23:53.765Z,10.07
2023-03-20T07:26:21.499Z,10.70
2023-03-20T07:28:51.525Z,10.25
2023-03-20T07:31:27.010Z,10.25
2023-03-20T07:34:03.549Z,11.07
2023-03-20T07:36:35.684Z,10.45
2023-03-20T07:39:03.737Z,10.63
2023-03-20T07:41:33.095Z,10.35
2023-03-20T07:44:08.034Z,10.88
2023-03-20T07:46:47.366Z,9.35
2023-03-20T07:49:20.494Z,9.57
2023-03-20T07:51:49.693Z,9.10
2023-03-20T07:54:17.848Z,10.23
2023-03-20T07:56:45.845Z,9.98
2023-03-20T08:01:43.114Z,10.20
2023-03-20T08:04:11.523Z,10.15
2023-03-20T08:06:39.750Z,10.15
2023-03-20T08:09:07.744Z,12.23
2023-03-20T08:11:36.202Z,105.30
2023-03-20T08:14:03.996Z,10.50
2023-03-20T08:16:31.934Z,10.00
2023-03-20T08:19:01.980Z,9.68
2023-03-20T08:21:32.213Z,10.77
2023-03-20T08:23:59.739Z,11.13
2023-03-20T08:26:27.323Z,10.02
2023-03-20T08:28:55.966Z,10.57
2023-03-20T08:31:23.461Z,9.73
2023-03-20T08:33:51.420Z,10.07
2023-03-20T08:36:20.926Z,10.20
2023-03-20T08:38:49.654Z,11.27
2023-03-20T08:41:18.242Z,11.87
2023-03-20T08:43:46.335Z,14.68
2023-03-20T08:46:14.046Z,10.93
2023-03-20T08:48:42.137Z,12.15
2023-03-20T08:51:15.105Z,11.15
2023-03-20T08:53:42.894Z,14.18
2023-03-20T08:56:10.750Z,11.23
2023-03-20T08:58:39.846Z,12.38
2023-03-20T09:01:09.255Z,10.90
2023-03-20T09:03:37.837Z,10.52
2023-03-20T09:06:07.699Z,10.45
2023-03-20T09:08:36.102Z,10.88
2023-03-20T09:11:04.743Z,10.88
2023-03-20T09:13:33.223Z,11.13
2023-03-20T09:16:01.007Z,10.75
2023-03-20T09:18:29.513Z,12.20
2023-03-20T09:20:57.339Z,11.77
2023-03-20T09:23:24.923Z,11.13
2023-03-20T09:25:52.446Z,10.95
2023-03-20T09:28:20.360Z,12.07
2023-03-20T09:30:55.944Z,12.00
2023-03-20T09:33:23.964Z,10.80
2023-03-20T09:35:52.593Z,11.43
2023-03-20T09:38:21.227Z,10.95
2023-03-20T09:41:02.894Z,10.80
2023-03-20T09:44:05.723Z,11.10
2023-03-20T09:46:52.813Z,11.57
2023-03-20T09:49:44.476Z,11.35
2023-03-20T09:52:30.203Z,11.32
2023-03-20T09:55:10.696Z,11.15
2023-03-20T09:57:49.816Z,11.20
2023-03-20T10:00:29.771Z,13.15
2023-03-20T10:03:24.766Z,12.10
2023-03-20T10:05:59.942Z,11.88
2023-03-20T10:08:34.123Z,11.20
2023-03-20T10:11:29.894Z,12.82
2023-03-20T10:14:26.179Z,10.95
2023-03-20T10:17:18.330Z,10.68
2023-03-20T10:19:59.136Z,11.35
2023-03-20T10:22:34.747Z,13.73
2023-03-20T10:25:02.236Z,12.18
2023-03-20T10:27:35.043Z,12.68
2023-03-20T10:30:08.861Z,13.27
2023-03-20T10:33:02.663Z,13.38
2023-03-20T10:35:56.529Z,12.52
2023-03-20T10:38:46.240Z,12.38
2023-03-20T10:41:18.905Z,13.02
2023-03-20T10:43:53.070Z,12.98
2023-03-20T10:46:28.607Z,13.45
2023-03-20T10:49:08.540Z,12.57
2023-03-20T10:51:50.874Z,13.45
2023-03-20T10:54:29.841Z,11.40
2023-03-20T10:57:00.599Z,12.80
2023-03-20T10:59:41.168Z,13.73
2023-03-20T11:02:15.743Z,12.02
2023-03-20T11:04:44.055Z,12.77
2023-03-20T11:07:32.300Z,12.52
2023-03-20T11:10:06.209Z,12.38
2023-03-20T11:12:40.544Z,11.60
2023-03-20T11:15:21.213Z,11.20
2023-03-20T11:17:55.235Z,11.98
2023-03-20T11:20:23.076Z,9.90
2023-03-20T11:23:00.041Z,9.45
2023-03-20T11:25:33.835Z,10.10
2023-03-20T11:28:20.825Z,9.50
2023-03-20T11:31:03.947Z,9.27
2023-03-20T11:33:38.447Z,9.50
2023-03-20T11:36:34.791Z,9.90
2023-03-20T11:39:17.466Z,8.90
2023-03-20T11:41:51.127Z,8.55
2023-03-20T11:44:23.555Z,8.80
2023-03-20T11:47:14.987Z,9.45
2023-03-20T11:49:55.404Z,8.70
2023-03-20T11:52:28.797Z,7.93
2023-03-20T11:54:58.835Z,7.90
2023-03-20T11:57:32.292Z,8.23
2023-03-20T12:00:11.544Z,7.90
2023-03-20T12:02:43.515Z,8.32
2023-03-20T12:05:30.176Z,7.88
2023-03-20T12:08:04.031Z,7.95
2023-03-20T12:10:37.504Z,9.27
2023-03-20T12:13:26.308Z,8.48
2023-03-20T12:16:06.324Z,7.65
2023-03-20T12:18:43.583Z,7.13
2023-03-20T12:21:32.091Z,7.07
2023-03-20T12:24:14.705Z,7.87
2023-03-20T12:27:05.110Z,7.78
2023-03-20T12:29:40.627Z,7.75
2023-03-20T12:32:16.462Z,8.25
2023-03-20T12:34:51.857Z,8.18
2023-03-20T12:37:20.414Z,8.48
2023-03-20T12:39:57.138Z,8.50
2023-03-20T12:43:00.809Z,8.85
2023-03-20T12:45:44.888Z,8.40
2023-03-20T12:48:50.077Z,9.55
2023-03-20T12:51:42.560Z,7.82
2023-03-20T12:54:35.476Z,7.28
2023-03-20T12:57:24.898Z,9.15
2023-03-20T13:00:04.573Z,8.02
2023-03-20T13:02:50.694Z,7.38
2023-03-20T13:05:42.324Z,8.13
2023-03-20T13:08:29.576Z,7.97
2023-03-20T13:11:01.687Z,8.48
2023-03-20T13:13:48.029Z,8.25
2023-03-20T13:17:03.728Z,7.68
2023-03-20T13:19:42.312Z,8.85
2023-03-20T13:22:31.828Z,8.85
2023-03-20T13:25:56.505Z,9.57
2023-03-20T13:28:41.312Z,9.00
2023-03-20T13:31:20.369Z,8.68
2023-03-20T13:34:22.662Z,8.67
2023-03-20T13:37:21.979Z,8.45
2023-03-20T13:40:03.297Z,8.65
2023-03-20T13:42:38.186Z,8.13
2023-03-20T13:45:35.153Z,7.90
2023-03-20T13:48:19.946Z,8.40
2023-03-20T13:51:02.237Z,8.40
2023-03-20T13:53:33.640Z,8.30
2023-03-20T13:56:15.984Z,8.63
2023-03-20T13:58:59.131Z,7.88
2023-03-20T14:01:41.594Z,8.75
2023-03-20T14:04:16.172Z,8.45
2023-03-20T14:06:49.025Z,7.95
2023-03-20T14:09:30.971Z,7.80
2023-03-20T14:12:11.683Z,8.45
2023-03-20T14:14:46.317Z,7.60
2023-03-20T14:17:22.008Z,8.38
2023-03-20T14:19:51.606Z,9.20
2023-03-20T14:22:34.481Z,8.30
2023-03-20T14:25:14.036Z,8.32
2023-03-20T14:27:58.702Z,8.60
2023-03-20T14:30:47.669Z,8.73
2023-03-20T14:33:22.423Z,9.05
2023-03-20T14:36:11.562Z,8.10
2023-03-20T14:38:55.161Z,8.23
2023-03-20T14:41:45.949Z,8.27
2023-03-20T14:44:30.925Z,8.90
2023-03-20T14:47:05.526Z,8.63
2023-03-20T14:49:42.528Z,8.90
2023-03-20T14:52:20.002Z,9.10
2023-03-20T14:54:54.428Z,9.23
2023-03-20T14:57:56.447Z,8.75
2023-03-20T15:00:33.609Z,9.68
2023-03-20T15:03:15.518Z,9.45
2023-03-20T15:05:44.531Z,17.85
2023-03-20T15:11:08.082Z,8.50
2023-03-20T15:13:37.817Z,9.55
2023-03-20T15:16:09.030Z,9.38
2023-03-20T15:18:45.950Z,8.13
2023-03-20T15:21:21.108Z,9.25
2023-03-20T15:23:49.158Z,9.00
2023-03-20T15:26:20.559Z,10.07
2023-03-20T15:28:49.467Z,8.68
2023-03-20T15:31:38.587Z,9.50
2023-03-20T15:34:17.269Z,9.88
2023-03-20T15:36:45.764Z,12.80
2023-03-20T15:39:13.581Z,9.52
2023-03-20T15:41:46.332Z,8.73
2023-03-20T15:44:37.216Z,9.07
2023-03-20T15:47:11.418Z,9.05
2023-03-20T15:49:41.247Z,9.43
2023-03-20T15:52:54.166Z,25.25
2023-03-20T15:55:24.790Z,8.65
2023-03-20T15:57:56.275Z,8.82
2023-03-20T16:00:31.567Z,9.43
2023-03-20T16:03:01.721Z,9.82
2023-03-20T16:05:30.709Z,10.82
2023-03-20T16:08:12.386Z,10.65
2023-03-20T16:10:43.328Z,10.48
2023-03-20T16:13:17.237Z,11.55
2023-03-20T16:15:46.531Z,11.05
2023-03-20T16:18:16.844Z,11.80
2023-03-20T16:21:02.200Z,12.50
2023-03-20T16:23:38.927Z,10.88
2023-03-20T16:26:11.915Z,12.00
2023-03-20T16:28:39.607Z,11.82
2023-03-20T16:31:16.322Z,12.30
2023-03-20T16:33:45.319Z,12.63
2023-03-20T16:36:22.689Z,13.35
2023-03-20T16:39:22.248Z,11.77
2023-03-20T16:42:09.147Z,13.38
2023-03-20T16:44:38.177Z,13.60
2023-03-20T16:47:23.532Z,13.85
2023-03-20T16:49:54.335Z,14.77
2023-03-20T16:52:28.639Z,15.60
2023-03-20T16:54:58.223Z,15.95
2023-03-20T16:57:28.821Z,15.60
2023-03-20T17:00:04.755Z,16.23
2023-03-20T17:02:38.327Z,15.73
2023-03-20T17:05:12.275Z,16.33
2023-03-20T17:07:42.637Z,16.80
2023-03-20T17:10:20.216Z,17.52
2023-03-20T17:12:49.881Z,16.90
2023-03-20T17:15:22.639Z,18.27
2023-03-20T17:17:51.564Z,18.02
2023-03-20T17:20:29.063Z,18.92
2023-03-20T17:22:57.078Z,18.55
2023-03-20T17:25:24.835Z,19.15
2023-03-20T17:27:52.869Z,17.40
2023-03-20T17:30:25.105Z,19.05
2023-03-20T17:32:53.322Z,18.60
2023-03-20T17:35:21.423Z,19.38
2023-03-20T17:37:49.464Z,18.85
2023-03-20T17:40:22.739Z,16.33
2023-03-20T17:42:50.500Z,16.05
2023-03-20T17:45:24.105Z,15.35
2023-03-20T17:47:52.706Z,13.40
2023-03-20T17:50:27.594Z,11.95
2023-03-20T17:52:55.414Z,12.00
2023-03-20T17:55:23.250Z,12.07
2023-03-20T17:57:51.836Z,11.87
2023-03-20T18:00:24.764Z,11.20
2023-03-20T18:02:53.054Z,9.93
2023-03-20T18:05:21.283Z,12.40
2023-03-20T18:07:49.052Z,11.43
2023-03-20T18:10:25.349Z,12.15
2023-03-20T18:12:53.108Z,12.80
2023-03-20T18:15:24.025Z,11.73
2023-03-20T18:17:51.526Z,12.98
2023-03-20T18:20:32.371Z,12.20
2023-03-20T18:23:00.973Z,12.60
2023-03-20T18:25:30.170Z,12.93
2023-03-20T18:28:00.272Z,12.90
2023-03-20T18:30:37.904Z,13.15
2023-03-20T18:33:09.086Z,13.07
2023-03-20T18:35:37.706Z,15.18
2023-03-20T18:38:06.017Z,15.52
2023-03-20T18:40:36.531Z,15.02
2023-03-20T18:43:05.181Z,14.93
2023-03-20T18:45:33.001Z,16.25
2023-03-20T18:48:20.296Z,16.55
2023-03-20T18:50:51.106Z,15.18
2023-03-20T18:53:20.647Z,16.13
2023-03-20T18:55:48.373Z,17.02
2023-03-20T18:58:24.893Z,16.55
2023-03-20T19:00:56.027Z,14.70
2023-03-20T19:03:24.779Z,15.02
2023-03-20T19:05:53.730Z,16.05
2023-03-20T19:08:22.129Z,15.70
2023-03-20T19:13:22.606Z,14.13
2023-03-20T19:15:50.610Z,13.27
2023-03-20T19:18:27.182Z,14.45
2023-03-20T19:20:57.943Z,14.93
2023-03-20T19:23:29.104Z,14.20
2023-03-20T19:25:57.213Z,12.77
2023-03-20T19:28:38.792Z,14.30
2023-03-20T19:31:12.404Z,13.45
2023-03-20T19:33:41.128Z,13.32
2023-03-20T19:36:23.123Z,14.50
2023-03-20T19:38:51.957Z,15.07
2023-03-20T19:41:20.201Z,13.88
2023-03-20T19:43:52.882Z,14.85
2023-03-20T19:46:41.562Z,15.23
2023-03-20T19:49:30.190Z,16.77
2023-03-20T19:51:58.566Z,16.88
2023-03-20T19:54:28.628Z,19.23
2023-03-20T19:56:56.778Z,18.27
2023-03-20T19:59:25.774Z,18.75
2023-03-20T20:01:54.201Z,23.70
2023-03-20T20:04:21.864Z,25.48
2023-03-20T20:06:49.891Z,28.80
2023-03-20T20:09:18.188Z,32.15
2023-03-20T20:11:46.206Z,31.95
2023-03-20T20:14:15.271Z,36.33
2023-03-20T20:16:45.757Z,32.83
2023-03-20T20:19:13.672Z,36.03
2023-03-20T20:24:31.154Z,43.83
2023-03-20T20:27:16.207Z,43.20
2023-03-20T20:29:52.712Z,45.25
2023-03-20T20:32:24.614Z,42.95
2023-03-20T20:40:31.513Z,39.97
2023-03-20T20:43:02.004Z,40.40
2023-03-20T20:45:43.794Z,41.50
2023-03-20T20:48:12.855Z,37.35
2023-03-20T20:50:43.332Z,37.85
2023-03-20T20:53:12.855Z,33.00
2023-03-20T20:55:41.698Z,34.95
2023-03-20T20:58:11.426Z,30.73
2023-03-20T21:00:50.610Z,28.80
2023-03-20T21:03:20.878Z,34.45
2023-03-20T21:05:49.206Z,35.67
2023-03-20T21:08:18.579Z,27.50
2023-03-20T21:10:47.306Z,28.60
2023-03-20T21:13:16.043Z,30.63
2023-03-20T21:15:45.756Z,36.58
2023-03-20T21:18:19.650Z,35.00
2023-03-20T21:20:47.272Z,33.08
2023-03-20T21:23:14.884Z,31.67
2023-03-20T21:25:47.617Z,35.67
2023-03-20T21:28:16.541Z,37.72
2023-03-20T21:31:08.903Z,36.08
2023-03-20T21:33:34.517Z,38.20
2023-03-20T21:36:03.146Z,39.53
2023-03-20T21:39:06.016Z,39.20
2023-03-20T21:41:18.934Z,39.47
2023-03-20T21:43:47.392Z,39.53
2023-03-20T21:52:45.823Z,39.22
2023-03-20T21:56:09.305Z,38.08
2023-03-20T22:01:14.471Z,41.67
2023-03-20T22:03:10.898Z,43.60
2023-03-20T22:06:14.425Z,42.22
2023-03-20T22:12:01.602Z,39.67
2023-03-20T22:28:55.187Z,35.38
2023-03-20T22:42:48.967Z,35.25
2023-03-20T22:45:03.275Z,36.85
2023-03-20T22:47:32.827Z,38.15
2023-03-20T22:50:00.404Z,35.20
2023-03-20T22:52:38.348Z,34.53
2023-03-20T22:55:17.529Z,36.05
2023-03-20T22:58:00.031Z,36.28
2023-03-20T23:00:40.070Z,33.80
2023-03-20T23:03:22.404Z,34.78
2023-03-20T23:05:56.524Z,36.00
2023-03-20T23:08:24.976Z,33.42
2023-03-20T23:10:52.714Z,31.55
2023-03-20T23:15:50.895Z,32.53
2023-03-20T23:18:18.748Z,33.15
2023-03-20T23:20:46.440Z,31.38
2023-03-20T23:23:14.057Z,30.00
2023-03-20T23:25:41.949Z,25.77
2023-03-20T23:28:12.411Z,25.42
2023-03-20T23:30:56.745Z,25.70
2023-03-20T23:33:27.854Z,28.42
2023-03-20T23:36:12.517Z,34.95
2023-03-20T23:38:44.350Z,34.83
2023-03-20T23:41:12.817Z,31.33
2023-03-20T23:43:40.525Z,30.10
2023-03-20T23:46:10.690Z,29.27
2023-03-20T23:48:39.337Z,28.98
2023-03-20T23:51:07.880Z,28.25
2023-03-20T23:53:35.792Z,27.92
2023-03-20T23:56:04.087Z,30.88
2023-03-20T23:58:31.977Z,31.08
